sensor_id;sensor_type;location;lat;lon;timestamp;P1;durP1;ratioP1;P2;durP2;ratioP2
6269;SDS011;3168;51.684;6.954;2023-04-29T00:01:16;40.07;;;17.13;;
6269;SDS011;3168;51.684;6.954;2023-04-29T00:03:42;43.17;;;16.60;;
6269;SDS011;3168;51.684;6.954;2023-04-29T00:06:08;28.87;;;14.80;;
6269;SDS011;3168;51.684;6.954;2023-04-29T00:08:34;34.80;;;17.30;;
6269;SDS011;3168;51.684;6.954;2023-04-29T00:11:00;38.10;;;14.73;;
6269;SDS011;3168;51.684;6.954;2023-04-29T00:13:26;35.40;;;16.30;;
6269;SDS011;3168;51.684;6.954;2023-04-29T00:15:52;37.67;;;16.33;;
6269;SDS011;3168;51.684;6.954;2023-04-29T00:18:17;41.97;;;17.00;;
6269;SDS011;3168;51.684;6.954;2023-04-29T00:20:43;32.33;;;16.30;;
6269;SDS011;3168;51.684;6.954;2023-04-29T00:23:09;47.20;;;20.10;;
6269;SDS011;3168;51.684;6.954;2023-04-29T00:25:35;59.13;;;19.80;;
6269;SDS011;3168;51.684;6.954;2023-04-29T00:28:01;37.00;;;16.17;;
6269;SDS011;3168;51.684;6.954;2023-04-29T00:30:27;54.43;;;19.33;;
6269;SDS011;3168;51.684;6.954;2023-04-29T00:32:52;37.63;;;17.20;;
6269;SDS011;3168;51.684;6.954;2023-04-29T00:35:18;57.40;;;19.50;;
6269;SDS011;3168;51.684;6.954;2023-04-29T00:37:44;40.70;;;18.50;;
6269;SDS011;3168;51.684;6.954;2023-04-29T00:40:10;66.33;;;20.57;;
6269;SDS011;3168;51.684;6.954;2023-04-29T00:42:37;64.93;;;21.13;;
6269;SDS011;3168;51.684;6.954;2023-04-29T00:45:03;62.43;;;24.33;;
6269;SDS011;3168;51.684;6.954;2023-04-29T00:47:29;83.00;;;25.17;;
6269;SDS011;3168;51.684;6.954;2023-04-29T00:49:55;70.67;;;23.50;;
6269;SDS011;3168;51.684;6.954;2023-04-29T00:52:20;61.07;;;21.30;;
6269;SDS011;3168;51.684;6.954;2023-04-29T00:54:46;64.47;;;22.57;;
6269;SDS011;3168;51.684;6.954;2023-04-29T00:57:12;53.63;;;19.87;;
6269;SDS011;3168;51.684;6.954;2023-04-29T00:59:38;52.60;;;18.13;;
6269;SDS011;3168;51.684;6.954;2023-04-29T01:02:04;48.17;;;18.53;;
6269;SDS011;3168;51.684;6.954;2023-04-29T01:04:30;49.23;;;19.23;;
6269;SDS011;3168;51.684;6.954;2023-04-29T01:07:02;59.80;;;21.40;;
6269;SDS011;3168;51.684;6.954;2023-04-29T01:09:42;52.47;;;22.97;;
6269;SDS011;3168;51.684;6.954;2023-04-29T01:12:20;52.90;;;19.20;;
6269;SDS011;3168;51.684;6.954;2023-04-29T01:14:53;58.73;;;20.80;;
6269;SDS011;3168;51.684;6.954;2023-04-29T01:17:17;42.33;;;19.73;;
6269;SDS011;3168;51.684;6.954;2023-04-29T01:19:45;53.00;;;20.03;;
6269;SDS011;3168;51.684;6.954;2023-04-29T01:22:10;48.40;;;19.77;;
6269;SDS011;3168;51.684;6.954;2023-04-29T01:24:36;66.53;;;18.80;;
6269;SDS011;3168;51.684;6.954;2023-04-29T01:27:38;53.87;;;19.60;;
6269;SDS011;3168;51.684;6.954;2023-04-29T01:29:55;46.43;;;16.83;;
6269;SDS011;3168;51.684;6.954;2023-04-29T01:32:25;44.50;;;17.10;;
6269;SDS011;3168;51.684;6.954;2023-04-29T01:37:27;42.60;;;18.73;;
6269;SDS011;3168;51.684;6.954;2023-04-29T01:39:56;44.05;;;16.55;;
6269;SDS011;3168;51.684;6.954;2023-04-29T01:42:39;35.60;;;15.90;;
6269;SDS011;3168;51.684;6.954;2023-04-29T01:45:04;38.90;;;14.90;;
6269;SDS011;3168;51.684;6.954;2023-04-29T01:47:29;31.00;;;14.70;;
6269;SDS011;3168;51.684;6.954;2023-04-29T01:49:55;34.73;;;14.53;;
6269;SDS011;3168;51.684;6.954;2023-04-29T01:52:21;32.30;;;11.90;;
6269;SDS011;3168;51.684;6.954;2023-04-29T01:54:47;26.57;;;12.37;;
6269;SDS011;3168;51.684;6.954;2023-04-29T01:57:13;31.50;;;13.83;;
6269;SDS011;3168;51.684;6.954;2023-04-29T01:59:38;34.60;;;14.50;;
6269;SDS011;3168;51.684;6.954;2023-04-29T02:02:04;28.37;;;13.43;;
6269;SDS011;3168;51.684;6.954;2023-04-29T02:04:30;32.43;;;14.40;;
6269;SDS011;3168;51.684;6.954;2023-04-29T02:06:56;34.33;;;12.90;;
6269;SDS011;3168;51.684;6.954;2023-04-29T02:09:22;30.73;;;14.83;;
6269;SDS011;3168;51.684;6.954;2023-04-29T02:11:47;27.20;;;12.33;;
6269;SDS011;3168;51.684;6.954;2023-04-29T02:14:13;36.00;;;13.20;;
6269;SDS011;3168;51.684;6.954;2023-04-29T02:16:39;38.20;;;13.10;;
6269;SDS011;3168;51.684;6.954;2023-04-29T02:19:05;23.80;;;11.47;;
6269;SDS011;3168;51.684;6.954;2023-04-29T02:21:31;27.03;;;12.67;;
6269;SDS011;3168;51.684;6.954;2023-04-29T02:23:56;25.03;;;11.67;;
6269;SDS011;3168;51.684;6.954;2023-04-29T02:26:22;28.60;;;12.17;;
6269;SDS011;3168;51.684;6.954;2023-04-29T02:28:48;27.67;;;12.57;;
6269;SDS011;3168;51.684;6.954;2023-04-29T02:31:14;25.90;;;12.03;;
6269;SDS011;3168;51.684;6.954;2023-04-29T02:33:40;24.23;;;11.63;;
6269;SDS011;3168;51.684;6.954;2023-04-29T02:36:05;17.80;;;10.17;;
6269;SDS011;3168;51.684;6.954;2023-04-29T02:38:31;20.47;;;11.53;;
6269;SDS011;3168;51.684;6.954;2023-04-29T02:40:57;34.05;;;11.82;;
6269;SDS011;3168;51.684;6.954;2023-04-29T02:43:23;32.33;;;12.30;;
6269;SDS011;3168;51.684;6.954;2023-04-29T02:45:49;28.20;;;10.97;;
6269;SDS011;3168;51.684;6.954;2023-04-29T02:48:15;29.60;;;12.87;;
6269;SDS011;3168;51.684;6.954;2023-04-29T02:50:40;21.97;;;10.93;;
6269;SDS011;3168;51.684;6.954;2023-04-29T02:53:06;25.87;;;11.00;;
6269;SDS011;3168;51.684;6.954;2023-04-29T02:55:32;15.37;;;9.80;;
6269;SDS011;3168;51.684;6.954;2023-04-29T02:57:58;22.80;;;10.63;;
6269;SDS011;3168;51.684;6.954;2023-04-29T03:00:24;27.33;;;11.87;;
6269;SDS011;3168;51.684;6.954;2023-04-29T03:02:50;17.23;;;10.80;;
6269;SDS011;3168;51.684;6.954;2023-04-29T03:05:15;23.50;;;11.13;;
6269;SDS011;3168;51.684;6.954;2023-04-29T03:07:41;28.87;;;11.77;;
6269;SDS011;3168;51.684;6.954;2023-04-29T03:10:07;24.83;;;11.67;;
6269;SDS011;3168;51.684;6.954;2023-04-29T03:12:34;23.67;;;11.77;;
6269;SDS011;3168;51.684;6.954;2023-04-29T03:14:59;15.50;;;9.33;;
6269;SDS011;3168;51.684;6.954;2023-04-29T03:17:25;25.90;;;11.83;;
6269;SDS011;3168;51.684;6.954;2023-04-29T03:19:51;25.10;;;12.53;;
6269;SDS011;3168;51.684;6.954;2023-04-29T03:22:17;32.40;;;12.23;;
6269;SDS011;3168;51.684;6.954;2023-04-29T03:24:43;33.43;;;14.67;;
6269;SDS011;3168;51.684;6.954;2023-04-29T03:27:09;23.93;;;12.47;;
6269;SDS011;3168;51.684;6.954;2023-04-29T03:29:34;28.23;;;13.30;;
6269;SDS011;3168;51.684;6.954;2023-04-29T03:32:00;30.73;;;13.10;;
6269;SDS011;3168;51.684;6.954;2023-04-29T03:34:26;22.97;;;12.20;;
6269;SDS011;3168;51.684;6.954;2023-04-29T03:36:52;21.73;;;11.77;;
6269;SDS011;3168;51.684;6.954;2023-04-29T03:39:17;25.60;;;13.03;;
6269;SDS011;3168;51.684;6.954;2023-04-29T03:41:43;27.03;;;12.70;;
6269;SDS011;3168;51.684;6.954;2023-04-29T03:44:09;32.40;;;14.27;;
6269;SDS011;3168;51.684;6.954;2023-04-29T03:46:35;23.70;;;12.00;;
6269;SDS011;3168;51.684;6.954;2023-04-29T03:49:01;26.90;;;12.60;;
6269;SDS011;3168;51.684;6.954;2023-04-29T03:51:26;22.37;;;11.50;;
6269;SDS011;3168;51.684;6.954;2023-04-29T03:59:12;36.60;;;11.57;;
6269;SDS011;3168;51.684;6.954;2023-04-29T04:01:38;24.47;;;12.67;;
6269;SDS011;3168;51.684;6.954;2023-04-29T04:04:04;18.50;;;12.30;;
6269;SDS011;3168;51.684;6.954;2023-04-29T04:06:30;28.47;;;12.60;;
6269;SDS011;3168;51.684;6.954;2023-04-29T04:08:56;19.20;;;10.57;;
6269;SDS011;3168;51.684;6.954;2023-04-29T04:11:22;27.60;;;14.50;;
6269;SDS011;3168;51.684;6.954;2023-04-29T04:13:48;26.60;;;13.63;;
6269;SDS011;3168;51.684;6.954;2023-04-29T04:16:13;28.13;;;12.27;;
6269;SDS011;3168;51.684;6.954;2023-04-29T04:18:39;27.17;;;11.40;;
6269;SDS011;3168;51.684;6.954;2023-04-29T04:21:08;37.10;;;16.57;;
6269;SDS011;3168;51.684;6.954;2023-04-29T04:23:34;23.73;;;11.23;;
6269;SDS011;3168;51.684;6.954;2023-04-29T04:25:59;31.77;;;13.23;;
6269;SDS011;3168;51.684;6.954;2023-04-29T04:28:25;29.20;;;14.57;;
6269;SDS011;3168;51.684;6.954;2023-04-29T04:30:51;25.80;;;13.37;;
6269;SDS011;3168;51.684;6.954;2023-04-29T04:33:17;32.10;;;14.07;;
6269;SDS011;3168;51.684;6.954;2023-04-29T04:35:42;26.30;;;13.77;;
6269;SDS011;3168;51.684;6.954;2023-04-29T04:38:08;25.07;;;12.37;;
6269;SDS011;3168;51.684;6.954;2023-04-29T04:40:34;28.10;;;13.73;;
6269;SDS011;3168;51.684;6.954;2023-04-29T04:43:00;21.13;;;13.00;;
6269;SDS011;3168;51.684;6.954;2023-04-29T04:45:27;27.90;;;14.37;;
6269;SDS011;3168;51.684;6.954;2023-04-29T04:47:51;24.07;;;12.27;;
6269;SDS011;3168;51.684;6.954;2023-04-29T04:50:17;23.47;;;12.63;;
6269;SDS011;3168;51.684;6.954;2023-04-29T04:52:43;24.30;;;12.97;;
6269;SDS011;3168;51.684;6.954;2023-04-29T04:55:09;30.17;;;11.90;;
6269;SDS011;3168;51.684;6.954;2023-04-29T04:57:35;23.90;;;13.40;;
6269;SDS011;3168;51.684;6.954;2023-04-29T05:00:01;28.30;;;15.27;;
6269;SDS011;3168;51.684;6.954;2023-04-29T05:02:27;28.10;;;14.60;;
6269;SDS011;3168;51.684;6.954;2023-04-29T05:04:53;19.97;;;11.30;;
6269;SDS011;3168;51.684;6.954;2023-04-29T05:07:19;19.00;;;12.50;;
6269;SDS011;3168;51.684;6.954;2023-04-29T05:09:44;23.13;;;12.97;;
6269;SDS011;3168;51.684;6.954;2023-04-29T05:12:10;30.73;;;14.70;;
6269;SDS011;3168;51.684;6.954;2023-04-29T05:14:36;21.50;;;13.07;;
6269;SDS011;3168;51.684;6.954;2023-04-29T05:17:02;19.83;;;12.37;;
6269;SDS011;3168;51.684;6.954;2023-04-29T05:19:28;21.00;;;11.73;;
6269;SDS011;3168;51.684;6.954;2023-04-29T05:21:54;18.90;;;11.33;;
6269;SDS011;3168;51.684;6.954;2023-04-29T05:24:19;20.87;;;12.70;;
6269;SDS011;3168;51.684;6.954;2023-04-29T05:26:45;21.40;;;13.17;;
6269;SDS011;3168;51.684;6.954;2023-04-29T05:29:11;22.10;;;12.67;;
6269;SDS011;3168;51.684;6.954;2023-04-29T05:31:37;24.80;;;15.10;;
6269;SDS011;3168;51.684;6.954;2023-04-29T05:34:04;15.77;;;11.33;;
6269;SDS011;3168;51.684;6.954;2023-04-29T05:36:29;15.83;;;10.50;;
6269;SDS011;3168;51.684;6.954;2023-04-29T05:38:55;25.50;;;13.10;;
6269;SDS011;3168;51.684;6.954;2023-04-29T05:41:22;22.73;;;12.70;;
6269;SDS011;3168;51.684;6.954;2023-04-29T05:43:47;29.53;;;14.13;;
6269;SDS011;3168;51.684;6.954;2023-04-29T05:46:13;18.80;;;11.50;;
6269;SDS011;3168;51.684;6.954;2023-04-29T05:48:39;23.73;;;13.30;;
6269;SDS011;3168;51.684;6.954;2023-04-29T05:51:05;21.03;;;12.43;;
6269;SDS011;3168;51.684;6.954;2023-04-29T05:53:31;16.40;;;10.30;;
6269;SDS011;3168;51.684;6.954;2023-04-29T05:55:56;32.07;;;13.33;;
6269;SDS011;3168;51.684;6.954;2023-04-29T05:58:22;19.67;;;11.20;;
6269;SDS011;3168;51.684;6.954;2023-04-29T06:00:48;20.50;;;12.63;;
6269;SDS011;3168;51.684;6.954;2023-04-29T06:03:14;17.53;;;10.40;;
6269;SDS011;3168;51.684;6.954;2023-04-29T06:05:39;18.33;;;10.83;;
6269;SDS011;3168;51.684;6.954;2023-04-29T06:08:05;22.30;;;14.30;;
6269;SDS011;3168;51.684;6.954;2023-04-29T06:10:31;23.03;;;11.47;;
6269;SDS011;3168;51.684;6.954;2023-04-29T06:12:57;24.73;;;12.10;;
6269;SDS011;3168;51.684;6.954;2023-04-29T06:15:23;17.10;;;11.70;;
6269;SDS011;3168;51.684;6.954;2023-04-29T06:17:48;21.83;;;12.77;;
6269;SDS011;3168;51.684;6.954;2023-04-29T06:20:14;26.17;;;13.73;;
6269;SDS011;3168;51.684;6.954;2023-04-29T06:22:41;18.80;;;11.27;;
6269;SDS011;3168;51.684;6.954;2023-04-29T06:25:07;16.43;;;11.87;;
6269;SDS011;3168;51.684;6.954;2023-04-29T06:27:33;20.50;;;12.43;;
6269;SDS011;3168;51.684;6.954;2023-04-29T06:29:59;19.83;;;11.10;;
6269;SDS011;3168;51.684;6.954;2023-04-29T06:32:24;30.10;;;14.10;;
6269;SDS011;3168;51.684;6.954;2023-04-29T06:34:50;27.03;;;15.90;;
6269;SDS011;3168;51.684;6.954;2023-04-29T06:37:17;18.87;;;12.60;;
6269;SDS011;3168;51.684;6.954;2023-04-29T06:39:43;25.43;;;11.30;;
6269;SDS011;3168;51.684;6.954;2023-04-29T06:42:08;24.40;;;12.97;;
6269;SDS011;3168;51.684;6.954;2023-04-29T06:44:35;25.83;;;13.57;;
6269;SDS011;3168;51.684;6.954;2023-04-29T06:47:01;25.03;;;13.10;;
6269;SDS011;3168;51.684;6.954;2023-04-29T06:49:27;23.70;;;13.90;;
6269;SDS011;3168;51.684;6.954;2023-04-29T06:51:52;33.53;;;13.30;;
6269;SDS011;3168;51.684;6.954;2023-04-29T06:54:18;25.47;;;13.63;;
6269;SDS011;3168;51.684;6.954;2023-04-29T06:56:44;25.17;;;13.10;;
6269;SDS011;3168;51.684;6.954;2023-04-29T06:59:10;22.13;;;13.47;;
6269;SDS011;3168;51.684;6.954;2023-04-29T07:01:36;24.53;;;12.83;;
6269;SDS011;3168;51.684;6.954;2023-04-29T07:04:02;19.80;;;11.70;;
6269;SDS011;3168;51.684;6.954;2023-04-29T07:06:28;27.20;;;13.87;;
6269;SDS011;3168;51.684;6.954;2023-04-29T07:08:54;26.70;;;15.37;;
6269;SDS011;3168;51.684;6.954;2023-04-29T07:11:20;26.83;;;13.03;;
6269;SDS011;3168;51.684;6.954;2023-04-29T07:13:46;28.07;;;14.60;;
6269;SDS011;3168;51.684;6.954;2023-04-29T07:16:14;31.10;;;14.80;;
6269;SDS011;3168;51.684;6.954;2023-04-29T07:18:40;33.07;;;14.77;;
6269;SDS011;3168;51.684;6.954;2023-04-29T07:21:06;30.93;;;12.23;;
6269;SDS011;3168;51.684;6.954;2023-04-29T07:23:32;38.97;;;13.63;;
6269;SDS011;3168;51.684;6.954;2023-04-29T07:25:58;24.40;;;14.00;;
6269;SDS011;3168;51.684;6.954;2023-04-29T07:28:24;28.67;;;13.77;;
6269;SDS011;3168;51.684;6.954;2023-04-29T07:30:50;28.63;;;12.30;;
6269;SDS011;3168;51.684;6.954;2023-04-29T07:33:15;24.07;;;12.90;;
6269;SDS011;3168;51.684;6.954;2023-04-29T07:35:41;27.20;;;15.20;;
6269;SDS011;3168;51.684;6.954;2023-04-29T07:38:07;32.17;;;13.93;;
6269;SDS011;3168;51.684;6.954;2023-04-29T07:40:33;33.13;;;13.57;;
6269;SDS011;3168;51.684;6.954;2023-04-29T07:42:59;25.27;;;14.20;;
6269;SDS011;3168;51.684;6.954;2023-04-29T07:45:25;23.60;;;13.80;;
6269;SDS011;3168;51.684;6.954;2023-04-29T07:47:50;23.63;;;14.77;;
6269;SDS011;3168;51.684;6.954;2023-04-29T07:50:16;27.40;;;15.53;;
6269;SDS011;3168;51.684;6.954;2023-04-29T07:52:42;23.87;;;14.27;;
6269;SDS011;3168;51.684;6.954;2023-04-29T07:55:08;28.47;;;13.17;;
6269;SDS011;3168;51.684;6.954;2023-04-29T07:57:34;26.07;;;14.00;;
6269;SDS011;3168;51.684;6.954;2023-04-29T08:00:00;35.20;;;15.10;;
6269;SDS011;3168;51.684;6.954;2023-04-29T08:02:26;27.20;;;14.80;;
6269;SDS011;3168;51.684;6.954;2023-04-29T08:04:53;25.40;;;13.90;;
6269;SDS011;3168;51.684;6.954;2023-04-29T08:07:19;23.70;;;13.20;;
6269;SDS011;3168;51.684;6.954;2023-04-29T08:09:45;24.97;;;14.17;;
6269;SDS011;3168;51.684;6.954;2023-04-29T08:12:11;24.87;;;14.50;;
6269;SDS011;3168;51.684;6.954;2023-04-29T08:14:37;19.20;;;13.00;;
6269;SDS011;3168;51.684;6.954;2023-04-29T08:17:03;46.20;;;15.57;;
6269;SDS011;3168;51.684;6.954;2023-04-29T08:19:29;27.20;;;14.80;;
6269;SDS011;3168;51.684;6.954;2023-04-29T08:21:54;42.77;;;14.10;;
6269;SDS011;3168;51.684;6.954;2023-04-29T08:24:21;31.10;;;13.27;;
6269;SDS011;3168;51.684;6.954;2023-04-29T08:26:47;32.43;;;16.07;;
6269;SDS011;3168;51.684;6.954;2023-04-29T08:29:12;21.37;;;12.43;;
6269;SDS011;3168;51.684;6.954;2023-04-29T08:31:38;20.27;;;12.57;;
6269;SDS011;3168;51.684;6.954;2023-04-29T08:34:05;23.70;;;13.50;;
6269;SDS011;3168;51.684;6.954;2023-04-29T08:36:30;30.90;;;13.43;;
6269;SDS011;3168;51.684;6.954;2023-04-29T08:38:56;19.77;;;13.10;;
6269;SDS011;3168;51.684;6.954;2023-04-29T08:41:22;22.98;;;12.77;;
6269;SDS011;3168;51.684;6.954;2023-04-29T08:43:48;21.00;;;14.00;;
6269;SDS011;3168;51.684;6.954;2023-04-29T08:46:14;28.47;;;14.97;;
6269;SDS011;3168;51.684;6.954;2023-04-29T08:48:40;32.33;;;15.10;;
6269;SDS011;3168;51.684;6.954;2023-04-29T08:51:06;20.33;;;13.70;;
6269;SDS011;3168;51.684;6.954;2023-04-29T08:53:32;22.13;;;14.17;;
6269;SDS011;3168;51.684;6.954;2023-04-29T08:55:59;14.67;;;10.23;;
6269;SDS011;3168;51.684;6.954;2023-04-29T08:58:24;46.53;;;13.70;;
6269;SDS011;3168;51.684;6.954;2023-04-29T09:00:51;23.83;;;12.17;;
6269;SDS011;3168;51.684;6.954;2023-04-29T09:03:38;20.33;;;12.60;;
6269;SDS011;3168;51.684;6.954;2023-04-29T09:06:01;25.33;;;14.03;;
6269;SDS011;3168;51.684;6.954;2023-04-29T09:08:28;18.10;;;12.20;;
6269;SDS011;3168;51.684;6.954;2023-04-29T09:10:54;15.00;;;10.83;;
6269;SDS011;3168;51.684;6.954;2023-04-29T09:13:22;18.73;;;12.93;;
6269;SDS011;3168;51.684;6.954;2023-04-29T09:15:50;14.97;;;11.63;;
6269;SDS011;3168;51.684;6.954;2023-04-29T09:20:55;36.33;;;13.10;;
6269;SDS011;3168;51.684;6.954;2023-04-29T09:23:22;15.00;;;11.93;;
6269;SDS011;3168;51.684;6.954;2023-04-29T09:25:54;21.67;;;13.67;;
6269;SDS011;3168;51.684;6.954;2023-04-29T09:28:21;17.07;;;11.50;;
6269;SDS011;3168;51.684;6.954;2023-04-29T09:30:48;21.93;;;11.80;;
6269;SDS011;3168;51.684;6.954;2023-04-29T09:33:14;17.07;;;11.60;;
6269;SDS011;3168;51.684;6.954;2023-04-29T09:35:41;25.40;;;13.20;;
6269;SDS011;3168;51.684;6.954;2023-04-29T09:38:08;23.37;;;13.93;;
6269;SDS011;3168;51.684;6.954;2023-04-29T09:40:36;12.90;;;10.60;;
6269;SDS011;3168;51.684;6.954;2023-04-29T09:43:02;21.70;;;11.37;;
6269;SDS011;3168;51.684;6.954;2023-04-29T09:45:32;21.60;;;12.80;;
6269;SDS011;3168;51.684;6.954;2023-04-29T09:48:01;29.40;;;14.30;;
6269;SDS011;3168;51.684;6.954;2023-04-29T09:50:29;18.27;;;12.00;;
6269;SDS011;3168;51.684;6.954;2023-04-29T09:52:56;15.83;;;12.87;;
6269;SDS011;3168;51.684;6.954;2023-04-29T09:55:22;17.27;;;11.70;;
6269;SDS011;3168;51.684;6.954;2023-04-29T09:57:47;12.83;;;10.80;;
6269;SDS011;3168;51.684;6.954;2023-04-29T10:00:13;13.80;;;11.00;;
6269;SDS011;3168;51.684;6.954;2023-04-29T10:02:40;18.30;;;12.17;;
6269;SDS011;3168;51.684;6.954;2023-04-29T10:05:06;13.83;;;9.97;;
6269;SDS011;3168;51.684;6.954;2023-04-29T10:07:32;20.70;;;11.10;;
6269;SDS011;3168;51.684;6.954;2023-04-29T10:09:58;14.73;;;12.03;;
6269;SDS011;3168;51.684;6.954;2023-04-29T10:12:24;23.20;;;11.50;;
6269;SDS011;3168;51.684;6.954;2023-04-29T10:14:54;16.73;;;12.10;;
6269;SDS011;3168;51.684;6.954;2023-04-29T10:17:21;15.33;;;11.20;;
6269;SDS011;3168;51.684;6.954;2023-04-29T10:19:47;16.70;;;11.20;;
6269;SDS011;3168;51.684;6.954;2023-04-29T10:22:15;18.13;;;9.43;;
6269;SDS011;3168;51.684;6.954;2023-04-29T10:24:38;11.90;;;10.70;;
6269;SDS011;3168;51.684;6.954;2023-04-29T10:27:05;17.47;;;10.37;;
6269;SDS011;3168;51.684;6.954;2023-04-29T10:29:31;10.90;;;9.80;;
6269;SDS011;3168;51.684;6.954;2023-04-29T10:31:57;11.57;;;9.30;;
6269;SDS011;3168;51.684;6.954;2023-04-29T10:34:23;39.50;;;12.40;;
6269;SDS011;3168;51.684;6.954;2023-04-29T10:36:49;11.80;;;10.30;;
6269;SDS011;3168;51.684;6.954;2023-04-29T10:39:19;20.60;;;9.83;;
6269;SDS011;3168;51.684;6.954;2023-04-29T10:41:42;12.80;;;10.57;;
6269;SDS011;3168;51.684;6.954;2023-04-29T10:44:06;11.90;;;8.80;;
6269;SDS011;3168;51.684;6.954;2023-04-29T10:46:32;11.10;;;9.77;;
6269;SDS011;3168;51.684;6.954;2023-04-29T10:49:00;10.63;;;9.40;;
6269;SDS011;3168;51.684;6.954;2023-04-29T10:51:27;12.10;;;9.40;;
6269;SDS011;3168;51.684;6.954;2023-04-29T10:54:05;11.33;;;9.70;;
6269;SDS011;3168;51.684;6.954;2023-04-29T10:56:46;9.33;;;8.23;;
6269;SDS011;3168;51.684;6.954;2023-04-29T10:59:13;10.17;;;8.10;;
6269;SDS011;3168;51.684;6.954;2023-04-29T11:01:40;21.73;;;12.43;;
6269;SDS011;3168;51.684;6.954;2023-04-29T11:04:05;18.83;;;10.87;;
6269;SDS011;3168;51.684;6.954;2023-04-29T11:06:41;11.03;;;8.47;;
6269;SDS011;3168;51.684;6.954;2023-04-29T11:09:10;13.93;;;8.50;;
6269;SDS011;3168;51.684;6.954;2023-04-29T11:11:56;9.77;;;8.30;;
6269;SDS011;3168;51.684;6.954;2023-04-29T11:14:56;17.30;;;8.53;;
6269;SDS011;3168;51.684;6.954;2023-04-29T11:17:08;8.30;;;7.57;;
6269;SDS011;3168;51.684;6.954;2023-04-29T11:19:34;10.57;;;8.17;;
6269;SDS011;3168;51.684;6.954;2023-04-29T11:22:03;8.73;;;7.50;;
6269;SDS011;3168;51.684;6.954;2023-04-29T11:24:28;9.40;;;8.40;;
6269;SDS011;3168;51.684;6.954;2023-04-29T11:26:57;9.67;;;8.00;;
6269;SDS011;3168;51.684;6.954;2023-04-29T11:29:20;8.00;;;7.20;;
6269;SDS011;3168;51.684;6.954;2023-04-29T11:31:46;9.00;;;7.13;;
6269;SDS011;3168;51.684;6.954;2023-04-29T11:34:12;11.60;;;6.93;;
6269;SDS011;3168;51.684;6.954;2023-04-29T11:36:38;8.17;;;7.37;;
6269;SDS011;3168;51.684;6.954;2023-04-29T11:39:03;7.90;;;6.80;;
6269;SDS011;3168;51.684;6.954;2023-04-29T11:41:29;5.97;;;5.53;;
6269;SDS011;3168;51.684;6.954;2023-04-29T11:43:56;6.30;;;5.80;;
6269;SDS011;3168;51.684;6.954;2023-04-29T11:46:22;8.37;;;6.23;;
6269;SDS011;3168;51.684;6.954;2023-04-29T11:48:48;6.47;;;5.90;;
6269;SDS011;3168;51.684;6.954;2023-04-29T11:51:14;12.93;;;7.27;;
6269;SDS011;3168;51.684;6.954;2023-04-29T11:53:39;7.43;;;6.80;;
6269;SDS011;3168;51.684;6.954;2023-04-29T11:56:05;15.57;;;7.90;;
6269;SDS011;3168;51.684;6.954;2023-04-29T11:58:31;11.13;;;6.50;;
6269;SDS011;3168;51.684;6.954;2023-04-29T12:00:57;8.63;;;7.70;;
6269;SDS011;3168;51.684;6.954;2023-04-29T12:03:23;6.23;;;5.53;;
6269;SDS011;3168;51.684;6.954;2023-04-29T12:05:49;6.80;;;6.20;;
6269;SDS011;3168;51.684;6.954;2023-04-29T12:08:18;8.37;;;7.50;;
6269;SDS011;3168;51.684;6.954;2023-04-29T12:10:41;10.80;;;7.37;;
6269;SDS011;3168;51.684;6.954;2023-04-29T12:13:07;14.23;;;6.37;;
6269;SDS011;3168;51.684;6.954;2023-04-29T12:15:33;9.27;;;7.20;;
6269;SDS011;3168;51.684;6.954;2023-04-29T12:17:59;6.80;;;6.20;;
6269;SDS011;3168;51.684;6.954;2023-04-29T12:20:24;6.13;;;5.73;;
6269;SDS011;3168;51.684;6.954;2023-04-29T12:22:51;5.80;;;5.27;;
6269;SDS011;3168;51.684;6.954;2023-04-29T12:25:17;6.73;;;6.07;;
6269;SDS011;3168;51.684;6.954;2023-04-29T12:27:43;9.50;;;6.17;;
6269;SDS011;3168;51.684;6.954;2023-04-29T12:30:09;6.13;;;5.50;;
6269;SDS011;3168;51.684;6.954;2023-04-29T12:32:35;10.20;;;6.80;;
6269;SDS011;3168;51.684;6.954;2023-04-29T12:35:01;6.77;;;6.03;;
6269;SDS011;3168;51.684;6.954;2023-04-29T12:37:27;19.53;;;7.03;;
6269;SDS011;3168;51.684;6.954;2023-04-29T12:39:54;5.13;;;4.83;;
6269;SDS011;3168;51.684;6.954;2023-04-29T12:42:19;7.83;;;6.50;;
6269;SDS011;3168;51.684;6.954;2023-04-29T12:44:45;11.00;;;7.30;;
6269;SDS011;3168;51.684;6.954;2023-04-29T12:47:12;19.20;;;6.57;;
6269;SDS011;3168;51.684;6.954;2023-04-29T12:49:40;6.67;;;5.97;;
6269;SDS011;3168;51.684;6.954;2023-04-29T12:52:05;8.90;;;6.47;;
6269;SDS011;3168;51.684;6.954;2023-04-29T12:54:31;6.73;;;6.07;;
6269;SDS011;3168;51.684;6.954;2023-04-29T12:56:57;7.47;;;6.13;;
6269;SDS011;3168;51.684;6.954;2023-04-29T12:59:23;6.60;;;5.63;;
6269;SDS011;3168;51.684;6.954;2023-04-29T13:01:49;5.03;;;4.70;;
6269;SDS011;3168;51.684;6.954;2023-04-29T13:04:14;6.17;;;5.57;;
6269;SDS011;3168;51.684;6.954;2023-04-29T13:06:40;11.73;;;6.30;;
6269;SDS011;3168;51.684;6.954;2023-04-29T13:09:06;8.50;;;6.00;;
6269;SDS011;3168;51.684;6.954;2023-04-29T13:11:32;5.37;;;5.07;;
6269;SDS011;3168;51.684;6.954;2023-04-29T13:13:58;7.80;;;6.80;;
6269;SDS011;3168;51.684;6.954;2023-04-29T13:16:24;4.80;;;4.40;;
6269;SDS011;3168;51.684;6.954;2023-04-29T13:18:50;7.37;;;5.70;;
6269;SDS011;3168;51.684;6.954;2023-04-29T13:21:16;7.40;;;6.20;;
6269;SDS011;3168;51.684;6.954;2023-04-29T13:23:42;5.13;;;4.70;;
6269;SDS011;3168;51.684;6.954;2023-04-29T13:26:09;6.40;;;5.80;;
6269;SDS011;3168;51.684;6.954;2023-04-29T13:28:34;6.17;;;5.30;;
6269;SDS011;3168;51.684;6.954;2023-04-29T13:31:00;5.40;;;4.10;;
6269;SDS011;3168;51.684;6.954;2023-04-29T13:33:26;6.17;;;5.77;;
6269;SDS011;3168;51.684;6.954;2023-04-29T13:35:52;7.03;;;5.37;;
6269;SDS011;3168;51.684;6.954;2023-04-29T13:38:17;5.50;;;5.00;;
6269;SDS011;3168;51.684;6.954;2023-04-29T13:40:43;6.50;;;5.60;;
6269;SDS011;3168;51.684;6.954;2023-04-29T13:43:09;6.20;;;5.57;;
6269;SDS011;3168;51.684;6.954;2023-04-29T13:45:35;5.33;;;4.93;;
6269;SDS011;3168;51.684;6.954;2023-04-29T13:48:01;8.83;;;6.53;;
6269;SDS011;3168;51.684;6.954;2023-04-29T13:50:27;14.60;;;7.33;;
6269;SDS011;3168;51.684;6.954;2023-04-29T13:52:52;13.80;;;6.93;;
6269;SDS011;3168;51.684;6.954;2023-04-29T13:55:18;7.60;;;6.90;;
6269;SDS011;3168;51.684;6.954;2023-04-29T13:57:44;7.10;;;6.40;;
6269;SDS011;3168;51.684;6.954;2023-04-29T14:00:10;6.13;;;5.53;;
6269;SDS011;3168;51.684;6.954;2023-04-29T14:02:37;18.80;;;6.77;;
6269;SDS011;3168;51.684;6.954;2023-04-29T14:05:03;5.40;;;5.00;;
6269;SDS011;3168;51.684;6.954;2023-04-29T14:07:29;6.57;;;6.07;;
6269;SDS011;3168;51.684;6.954;2023-04-29T14:09:54;5.53;;;4.97;;
6269;SDS011;3168;51.684;6.954;2023-04-29T14:12:20;4.50;;;4.20;;
6269;SDS011;3168;51.684;6.954;2023-04-29T14:14:46;5.40;;;4.90;;
6269;SDS011;3168;51.684;6.954;2023-04-29T14:17:12;5.63;;;5.17;;
6269;SDS011;3168;51.684;6.954;2023-04-29T14:19:39;5.60;;;4.20;;
6269;SDS011;3168;51.684;6.954;2023-04-29T14:22:04;5.70;;;5.30;;
6269;SDS011;3168;51.684;6.954;2023-04-29T14:24:30;5.37;;;4.87;;
6269;SDS011;3168;51.684;6.954;2023-04-29T14:26:56;4.80;;;4.40;;
6269;SDS011;3168;51.684;6.954;2023-04-29T14:29:22;4.53;;;4.30;;
6269;SDS011;3168;51.684;6.954;2023-04-29T14:31:48;4.10;;;3.80;;
6269;SDS011;3168;51.684;6.954;2023-04-29T14:34:13;4.40;;;4.10;;
6269;SDS011;3168;51.684;6.954;2023-04-29T14:36:40;5.73;;;4.57;;
6269;SDS011;3168;51.684;6.954;2023-04-29T14:39:06;7.37;;;4.90;;
6269;SDS011;3168;51.684;6.954;2023-04-29T14:41:32;4.30;;;4.10;;
6269;SDS011;3168;51.684;6.954;2023-04-29T14:43:57;4.90;;;4.60;;
6269;SDS011;3168;51.684;6.954;2023-04-29T14:46:24;4.93;;;4.40;;
6269;SDS011;3168;51.684;6.954;2023-04-29T14:48:49;4.60;;;4.20;;
6269;SDS011;3168;51.684;6.954;2023-04-29T14:51:15;5.23;;;4.63;;
6269;SDS011;3168;51.684;6.954;2023-04-29T14:53:41;5.47;;;4.97;;
6269;SDS011;3168;51.684;6.954;2023-04-29T14:56:07;5.30;;;4.80;;
6269;SDS011;3168;51.684;6.954;2023-04-29T14:58:33;5.03;;;4.63;;
6269;SDS011;3168;51.684;6.954;2023-04-29T15:00:58;10.33;;;6.07;;